Time;durP1;ratioP1;P1;durP2;ratioP2;P2;SDS_P1;SDS_P2;PMS_P1;PMS_P2;Temp;Humidity;BMP_temperature;BMP_pressure;BME280_temperature;BME280_humidity;BME280_pressure;Samples;Min_cycle;Max_cycle;Signal;HPM_P1;HPM_P2
2022/06/22 00:02:13;;;;;;;13.50;6.78;;;;;;;-145.69;100.00;70335.97;5054696;28;20290;-80
2022/06/22 00:04:46;;;;;;;9.63;7.00;;;;;;;-145.69;100.00;70339.94;5055604;28;20191;-80
2022/06/22 00:07:16;;;;;;;13.40;7.38;;;;;;;-145.69;100.00;70337.97;5055418;28;20209;-80
2022/06/22 00:09:44;;;;;;;12.38;7.00;;;;;;;-145.69;100.00;70332.00;5055175;28;20629;-80
2022/06/22 00:12:21;;;;;;;11.00;7.47;;;;;;;-145.69;100.00;70337.97;5054772;28;20261;-79
2022/06/22 00:14:51;;;;;;;15.70;7.53;;;;;;;-145.69;100.00;70343.94;5055056;28;20203;-79
2022/06/22 00:17:19;;;;;;;13.02;7.63;;;;;;;-145.69;100.00;70339.94;5055239;28;20199;-79
2022/06/22 00:19:47;;;;;;;11.95;7.15;;;;;;;-145.69;100.00;70347.91;5054896;28;20234;-80
2022/06/22 00:22:19;;;;;;;10.88;7.60;;;;;;;-145.69;100.00;70347.91;5054748;28;20664;-80
2022/06/22 00:24:46;;;;;;;12.02;7.75;;;;;;;-145.69;100.00;70349.91;5054952;28;20257;-80
2022/06/22 00:27:29;;;;;;;11.82;7.47;;;;;;;-145.69;100.00;70349.91;5054572;28;20246;-80
2022/06/22 00:30:20;;;;;;;20.88;8.90;;;;;;;-145.69;100.00;70330.00;5062295;28;20233;-79
2022/06/22 00:32:59;;;;;;;12.13;8.05;;;;;;;-145.69;100.00;70328.00;5074969;28;20256;-80
2022/06/22 00:35:52;;;;;;;16.63;8.70;;;;;;;-145.69;100.00;70312.09;5074871;28;20249;-79
2022/06/22 00:38:22;;;;;;;12.50;8.13;;;;;;;-145.69;100.00;70324.03;5059663;28;20294;-79
2022/06/22 00:40:56;;;;;;;12.25;8.00;;;;;;;-145.69;100.00;70324.03;5074711;28;20297;-80
2022/06/22 00:43:29;;;;;;;16.20;8.48;;;;;;;-145.69;100.00;70328.00;5075132;28;20209;-80
2022/06/22 00:45:57;;;;;;;17.30;7.93;;;;;;;-145.69;100.00;70328.00;5074295;28;20202;-80
2022/06/22 00:48:29;;;;;;;15.20;8.05;;;;;;;-145.69;100.00;70339.94;5074299;28;20566;-80
2022/06/22 00:51:01;;;;;;;11.40;7.88;;;;;;;-145.69;100.00;70343.94;5074523;28;20249;-80
2022/06/22 00:53:33;;;;;;;13.30;8.00;;;;;;;-145.69;100.00;70343.94;5074572;28;20194;-80
2022/06/22 00:56:08;;;;;;;15.35;7.68;;;;;;;-145.69;100.00;70353.88;5074069;28;20684;-80
2022/06/22 00:58:40;;;;;;;11.82;8.90;;;;;;;-145.69;100.00;70339.94;5073910;28;20202;-80
2022/06/22 01:01:14;;;;;;;12.38;8.60;;;;;;;-145.69;100.00;70349.91;5074384;28;20198;-79
2022/06/22 01:03:47;;;;;;;13.43;8.93;;;;;;;-145.69;100.00;70357.84;5074020;28;20199;-80
2022/06/22 01:06:18;;;;;;;13.02;8.88;;;;;;;-145.69;100.00;70353.88;5074184;28;20203;-79
2022/06/22 01:08:51;;;;;;;16.45;9.32;;;;;;;-145.69;100.00;70365.81;5073493;28;20434;-80
2022/06/22 01:14:12;;;;;;;11.20;7.93;;;;;;;-145.69;100.00;70383.72;5073715;28;20664;-79
2022/06/22 01:16:41;;;;;;;13.48;8.30;;;;;;;-145.69;100.00;70395.66;5073705;28;20213;-79
2022/06/22 01:19:22;;;;;;;12.60;8.18;;;;;;;-145.69;100.00;70401.63;5073911;28;20214;-80
2022/06/22 01:21:57;;;;;;;12.65;8.30;;;;;;;-145.69;100.00;70405.59;5073590;28;20202;-79
2022/06/22 01:24:32;;;;;;;13.65;8.18;;;;;;;-145.69;100.00;70399.63;5071596;28;20580;-80
2022/06/22 01:27:29;;;;;;;12.68;8.15;;;;;;;-145.69;100.00;70395.66;5053967;28;20203;-80
2022/06/22 01:29:58;;;;;;;15.88;9.30;;;;;;;-145.69;100.00;70387.69;5061076;28;20199;-80
2022/06/22 01:32:28;;;;;;;15.60;8.48;;;;;;;-145.69;100.00;70379.72;5073652;28;20203;-79
2022/06/22 01:34:58;;;;;;;15.77;8.43;;;;;;;-145.69;100.00;70387.69;5073611;28;20206;-80
2022/06/22 01:37:27;;;;;;;11.80;7.75;;;;;;;-145.69;100.00;70387.69;5073431;28;20202;-80
2022/06/22 01:39:59;;;;;;;15.38;8.18;;;;;;;-145.69;100.00;70383.72;5073439;28;20222;-79
2022/06/22 01:42:37;;;;;;;15.05;7.68;;;;;;;-145.69;100.00;70375.75;5073076;28;20207;-79
2022/06/22 01:45:10;;;;;;;12.70;8.48;;;;;;;-145.69;100.00;70369.78;5073517;28;20301;-80
2022/06/22 01:47:42;;;;;;;14.60;7.88;;;;;;;-145.69;100.00;70359.84;5073530;28;20206;-79
2022/06/22 01:50:16;;;;;;;17.52;7.70;;;;;;;-145.69;100.00;70353.88;5072419;28;20226;-80
2022/06/22 01:52:52;;;;;;;10.45;7.50;;;;;;;-145.69;100.00;70359.84;5072944;28;20209;-80
2022/06/22 01:55:28;;;;;;;11.13;8.05;;;;;;;-145.69;100.00;70367.81;5066345;28;20634;-80
2022/06/22 01:58:02;;;;;;;13.30;7.75;;;;;;;-145.69;100.00;70381.72;5053146;28;20654;-80
2022/06/22 02:00:29;;;;;;;14.30;7.60;;;;;;;-145.69;100.00;70391.66;5053291;28;20203;-80
2022/06/22 02:03:02;;;;;;;14.07;7.85;;;;;;;-145.69;100.00;70395.66;5052860;28;20199;-79
2022/06/22 02:05:39;;;;;;;13.23;7.57;;;;;;;-145.69;100.00;70409.56;5053183;28;20269;-80
2022/06/22 02:08:10;;;;;;;12.43;7.78;;;;;;;-145.69;100.00;70415.53;5053199;28;20653;-79
2022/06/22 02:10:45;;;;;;;11.90;7.65;;;;;;;-145.69;100.00;70421.50;5052777;28;20231;-80
2022/06/22 02:13:32;;;;;;;11.73;8.27;;;;;;;-145.69;100.00;70427.47;5052949;28;20230;-80
2022/06/22 02:16:04;;;;;;;13.93;7.78;;;;;;;-145.69;100.00;70421.50;5053217;28;20207;-79
2022/06/22 02:18:36;;;;;;;11.70;7.65;;;;;;;-145.69;100.00;70425.50;5052941;28;20684;-79
2022/06/22 02:21:21;;;;;;;15.68;7.93;;;;;;;-145.69;100.00;70429.47;5052636;28;20200;-80
2022/06/22 02:23:55;;;;;;;14.07;8.40;;;;;;;-145.69;100.00;70431.47;5052798;28;20764;-80
2022/06/22 02:26:28;;;;;;;13.45;8.38;;;;;;;-145.69;100.00;70439.41;5052643;28;20202;-79
2022/06/22 02:28:56;;;;;;;12.90;8.05;;;;;;;-145.69;100.00;70459.31;5052768;28;20203;-80
2022/06/22 02:31:23;;;;;;;14.43;7.97;;;;;;;-145.69;100.00;70451.34;5072212;28;20223;-80
2022/06/22 02:33:52;;;;;;;11.95;8.35;;;;;;;-145.69;100.00;70461.31;5072919;28;20202;-80
2022/06/22 02:36:20;;;;;;;14.93;8.27;;;;;;;-145.69;100.00;70475.22;5072640;28;20209;-80
2022/06/22 02:38:52;;;;;;;10.98;7.60;;;;;;;-145.69;100.00;70475.22;5072583;28;20285;-80
2022/06/22 02:44:31;;;;;;;15.30;8.90;;;;;;;-145.69;100.00;70483.19;5072627;28;20282;-80
2022/06/22 02:47:00;;;;;;;15.18;9.25;;;;;;;-145.69;100.00;70475.22;5072688;28;20210;-80
2022/06/22 02:49:31;;;;;;;14.02;8.95;;;;;;;-145.69;100.00;70483.19;5072564;28;20256;-80
2022/06/22 02:51:59;;;;;;;11.88;8.88;;;;;;;-145.69;100.00;70483.19;5072742;28;20310;-79
2022/06/22 02:54:31;;;;;;;16.70;9.85;;;;;;;-145.69;100.00;70495.13;5072690;28;20199;-79
2022/06/22 02:57:06;;;;;;;17.73;9.88;;;;;;;-145.69;100.00;70503.06;5072646;28;20206;-80
2022/06/22 02:59:35;;;;;;;15.73;9.30;;;;;;;-145.69;100.00;70507.06;5073072;28;20199;-80
2022/06/22 03:02:03;;;;;;;15.18;9.93;;;;;;;-145.69;100.00;70513.03;5076113;28;20206;-80
2022/06/22 03:04:30;;;;;;;16.58;9.30;;;;;;;-145.69;100.00;70526.94;5076423;28;20568;-80
2022/06/22 03:06:56;;;;;;;14.90;9.13;;;;;;;-145.69;100.00;70536.91;5076486;28;20206;-80
2022/06/22 03:09:26;;;;;;;14.85;9.38;;;;;;;-145.69;100.00;70542.88;5076152;28;20195;-80
2022/06/22 03:11:56;;;;;;;14.13;8.68;;;;;;;-145.69;100.00;70546.84;5075872;28;20803;-80
2022/06/22 03:14:28;;;;;;;12.48;9.23;;;;;;;-145.69;100.00;70552.81;5076423;28;20205;-80
2022/06/22 03:16:59;;;;;;;14.90;9.82;;;;;;;-145.69;100.00;70546.84;5076446;28;20203;-80
2022/06/22 03:19:38;;;;;;;18.20;10.18;;;;;;;-145.69;100.00;70536.91;5076325;28;20207;-80
2022/06/22 03:22:05;;;;;;;19.27;10.50;;;;;;;-145.69;100.00;70530.94;5076075;28;20246;-79
2022/06/22 03:24:40;;;;;;;13.93;10.40;;;;;;;-145.69;100.00;70522.97;5075620;28;20318;-80
2022/06/22 03:27:14;;;;;;;19.23;9.77;;;;;;;-145.69;100.00;70522.97;5076033;28;20289;-80
2022/06/22 03:29:45;;;;;;;17.20;9.95;;;;;;;-145.69;100.00;70519.00;5075803;28;20206;-80
2022/06/22 03:32:20;;;;;;;13.25;9.95;;;;;;;-145.69;100.00;70515.00;5075754;28;20688;-80
2022/06/22 03:34:51;;;;;;;15.88;10.02;;;;;;;-145.69;100.00;70519.00;5075552;28;20202;-80
2022/06/22 03:37:23;;;;;;;16.85;9.65;;;;;;;-145.69;100.00;70517.00;5076055;28;20199;-79
2022/06/22 03:39:56;;;;;;;13.93;9.48;;;;;;;-145.69;100.00;70526.94;5075727;28;20585;-80
2022/06/22 03:42:27;;;;;;;14.93;9.63;;;;;;;-145.69;100.00;70509.03;5075737;28;20210;-80
2022/06/22 03:44:57;;;;;;;15.25;10.63;;;;;;;-145.69;100.00;70515.00;5075755;28;20210;-79
2022/06/22 03:47:29;;;;;;;18.88;10.40;;;;;;;-145.69;100.00;70499.09;5075491;28;20205;-79
2022/06/22 03:50:01;;;;;;;12.55;9.07;;;;;;;-145.69;100.00;70493.13;5075503;28;20248;-80
2022/06/22 03:52:36;;;;;;;17.20;10.27;;;;;;;-145.69;100.00;70485.16;5075146;28;20457;-80
2022/06/22 03:55:05;;;;;;;18.65;8.88;;;;;;;-145.69;100.00;70463.28;5075628;28;20213;-80
2022/06/22 03:57:36;;;;;;;11.25;8.23;;;;;;;-145.69;100.00;70467.28;5075510;28;20572;-80
2022/06/22 04:00:05;;;;;;;14.82;8.70;;;;;;;-145.69;100.00;70443.41;5074992;28;20756;-80
2022/06/22 04:02:34;;;;;;;12.32;8.68;;;;;;;-145.69;100.00;70449.38;5075492;28;20202;-79
2022/06/22 04:05:04;;;;;;;10.63;8.10;;;;;;;-145.69;100.00;70435.44;5069225;28;20195;-80
2022/06/22 04:07:34;;;;;;;13.45;8.60;;;;;;;-145.69;100.00;70437.44;5055343;28;20206;-80
2022/06/22 04:10:01;;;;;;;14.57;8.60;;;;;;;-145.69;100.00;70433.44;5055036;28;20249;-80
2022/06/22 04:12:34;;;;;;;16.63;8.63;;;;;;;-145.69;100.00;70439.41;5054226;28;20234;-80
2022/06/22 04:15:10;;;;;;;11.25;7.22;;;;;;;-145.69;100.00;70433.44;5055122;28;20203;-79
2022/06/22 04:17:42;;;;;;;11.90;7.07;;;;;;;-145.69;100.00;70431.47;5055140;28;20203;-80
2022/06/22 04:20:18;;;;;;;10.98;8.20;;;;;;;-145.69;100.00;70433.44;5055140;28;20287;-80
2022/06/22 04:22:51;;;;;;;13.73;7.25;;;;;;;-145.69;100.00;70435.44;5054426;28;20242;-80
2022/06/22 04:25:28;;;;;;;11.93;7.60;;;;;;;-145.69;100.00;70425.50;5055089;28;20242;-80
2022/06/22 04:27:57;;;;;;;10.32;7.65;;;;;;;-145.69;100.00;70423.50;5053717;28;20448;-81
2022/06/22 04:30:29;;;;;;;12.00;7.75;;;;;;;-145.69;100.00;70419.53;5066087;28;20201;-80
2022/06/22 04:33:15;;;;;;;11.93;7.30;;;;;;;-145.69;100.00;70415.53;5074423;28;20276;-80
2022/06/22 04:35:47;;;;;;;17.83;7.80;;;;;;;-145.69;100.00;70411.56;5074645;28;20652;-79
2022/06/22 04:38:21;;;;;;;16.88;7.35;;;;;;;-145.69;100.00;70399.63;5074906;28;20230;-80
2022/06/22 04:40:55;;;;;;;14.13;7.18;;;;;;;-145.69;100.00;70405.59;5074287;28;20203;-80
2022/06/22 04:43:22;;;;;;;10.93;6.93;;;;;;;-145.69;100.00;70397.63;5074726;28;20217;-81
2022/06/22 04:45:49;;;;;;;14.55;6.97;;;;;;;-145.69;100.00;70387.69;5074835;28;20207;-80
2022/06/22 04:48:21;;;;;;;23.15;7.00;;;;;;;-145.69;100.00;70379.72;5074723;28;20203;-79
2022/06/22 04:50:51;;;;;;;11.23;7.03;;;;;;;-145.69;100.00;70379.72;5074210;28;20673;-80
2022/06/22 04:53:22;;;;;;;13.50;6.90;;;;;;;-145.69;100.00;70381.72;5074320;28;20202;-80
2022/06/22 04:55:50;;;;;;;10.15;6.80;;;;;;;-145.69;100.00;70379.72;5074436;28;20206;-80
2022/06/22 04:58:31;;;;;;;10.25;6.10;;;;;;;-145.69;100.00;70377.75;5073971;28;20210;-80
2022/06/22 05:00:58;;;;;;;8.18;5.85;;;;;;;-145.69;100.00;70373.78;5074016;28;20194;-80
2022/06/22 05:03:29;;;;;;;13.57;5.93;;;;;;;-145.69;100.00;70365.81;5074250;28;20199;-80
2022/06/22 05:05:58;;;;;;;12.65;5.90;;;;;;;-145.69;100.00;70351.88;5074160;28;20203;-80
2022/06/22 05:08:29;;;;;;;8.45;5.63;;;;;;;-145.69;100.00;70349.91;5073364;28;20206;-80
2022/06/22 05:11:00;;;;;;;13.00;5.25;;;;;;;-145.69;100.00;70351.88;5074012;28;20677;-80
2022/06/22 05:13:30;;;;;;;9.68;4.78;;;;;;;-145.69;100.00;70351.88;5074214;28;20252;-80
2022/06/22 05:16:00;;;;;;;11.55;5.82;;;;;;;-145.69;100.00;70349.91;5073739;28;20210;-78
2022/06/22 05:18:30;;;;;;;10.80;5.32;;;;;;;-145.69;100.00;70333.97;5073879;28;20210;-79
2022/06/22 05:21:05;;;;;;;14.82;5.90;;;;;;;-145.69;100.00;70373.78;5073843;28;20248;-79
2022/06/22 05:23:32;;;;;;;10.98;5.43;;;;;;;-145.69;100.00;70407.59;5072815;28;20676;-78
2022/06/22 05:26:02;;;;;;;12.98;5.03;;;;;;;-145.69;100.00;70429.47;5073341;28;20202;-78
2022/06/22 05:28:34;;;;;;;15.27;5.57;;;;;;;-145.69;100.00;70459.31;5073911;28;20561;-79
2022/06/22 05:31:06;;;;;;;13.60;5.75;;;;;;;-145.69;100.00;70471.25;5073604;28;20213;-78
2022/06/22 05:33:36;;;;;;;11.55;5.78;;;;;;;-145.69;100.00;70483.19;5073212;28;20199;-78
2022/06/22 05:36:07;;;;;;;17.05;6.00;;;;;;;-145.69;100.00;70475.22;5073091;28;20210;-78
2022/06/22 05:38:36;;;;;;;11.52;5.80;;;;;;;-145.69;100.00;70473.22;5073638;28;20206;-78
2022/06/22 05:41:07;;;;;;;17.90;5.90;;;;;;;-145.69;100.00;70467.28;5073466;28;20614;-78
2022/06/22 05:43:36;;;;;;;13.27;6.90;;;;;;;-145.69;100.00;70463.28;5073605;28;20294;-78
2022/06/22 05:46:05;;;;;;;13.18;7.07;;;;;;;-145.69;100.00;70451.34;5072699;28;20445;-79
2022/06/22 05:48:39;;;;;;;11.57;6.65;;;;;;;-145.69;100.00;70443.41;5073483;28;20198;-79
2022/06/22 05:51:18;;;;;;;18.00;7.38;;;;;;;-145.69;100.00;70411.56;5073095;28;20205;-79
2022/06/22 05:53:50;;;;;;;17.83;7.03;;;;;;;-145.69;100.00;70393.66;5072844;28;20661;-79
2022/06/22 05:56:22;;;;;;;18.98;6.88;;;;;;;-145.69;100.00;70401.63;5073121;28;20535;-79
2022/06/22 05:58:56;;;;;;;14.30;6.40;;;;;;;-145.69;100.00;70397.63;5073160;28;20194;-79
2022/06/22 06:01:30;;;;;;;20.88;6.53;;;;;;;-145.69;100.00;70399.63;5073075;28;20667;-78
2022/06/22 06:04:05;;;;;;;18.35;7.07;;;;;;;-145.69;100.00;70395.66;5073295;28;20602;-79
2022/06/22 06:06:37;;;;;;;11.35;6.15;;;;;;;-145.69;100.00;70387.69;5073131;28;20232;-79
2022/06/22 06:09:06;;;;;;;13.68;7.03;;;;;;;-145.69;100.00;70381.72;5073095;28;20206;-79
2022/06/22 06:11:36;;;;;;;14.45;6.80;;;;;;;-145.69;100.00;70381.72;5073011;28;20226;-79
2022/06/22 06:14:09;;;;;;;15.80;6.43;;;;;;;-145.69;100.00;70377.75;5073054;28;20205;-78
2022/06/22 06:16:45;;;;;;;12.90;6.45;;;;;;;-145.69;100.00;70375.75;5056029;28;20609;-78
2022/06/22 06:19:17;;;;;;;17.67;6.13;;;;;;;-145.69;100.00;70375.75;5052978;28;20203;-78
2022/06/22 06:21:45;;;;;;;17.08;6.05;;;;;;;-145.69;100.00;70347.91;5052621;28;20202;-78
2022/06/22 06:24:19;;;;;;;14.88;6.05;;;;;;;-145.69;100.00;70324.03;5052989;28;20207;-79
2022/06/22 06:29:41;;;;;;;18.30;6.80;;;;;;;-145.69;100.00;70288.22;5057774;28;20299;-79
2022/06/22 06:32:26;;;;;;;13.85;5.80;;;;;;;-145.69;100.00;70302.16;5072372;28;20234;-79
2022/06/22 06:34:59;;;;;;;11.45;5.60;;;;;;;-145.69;100.00;70290.22;5072637;28;20206;-79
2022/06/22 06:37:39;;;;;;;12.30;5.25;;;;;;;-145.69;100.00;70304.13;5072698;28;20665;-79
2022/06/22 06:40:11;;;;;;;14.73;5.43;;;;;;;-145.69;100.00;70298.16;5072651;28;20669;-80
2022/06/22 06:42:45;;;;;;;14.68;6.13;;;;;;;-145.69;100.00;70292.19;5072960;28;20214;-80
2022/06/22 06:45:15;;;;;;;10.23;5.68;;;;;;;-145.69;100.00;70276.28;5072890;28;20198;-80
2022/06/22 06:47:47;;;;;;;13.18;5.78;;;;;;;-145.69;100.00;70288.22;5072485;28;20206;-79
2022/06/22 06:50:19;;;;;;;13.35;5.63;;;;;;;-145.69;100.00;70288.22;5072406;28;20252;-79
2022/06/22 06:52:52;;;;;;;11.40;5.30;;;;;;;-145.69;100.00;70278.28;5072509;28;20689;-80
2022/06/22 06:55:25;;;;;;;14.40;5.82;;;;;;;-145.69;100.00;70284.25;5072763;28;20614;-80
2022/06/22 06:57:59;;;;;;;12.00;5.95;;;;;;;-145.69;100.00;70274.31;5071775;28;20434;-79
2022/06/22 07:00:26;;;;;;;10.50;5.38;;;;;;;-145.69;100.00;70274.31;5072615;28;20672;-79
2022/06/22 07:02:53;;;;;;;14.55;5.93;;;;;;;-145.69;100.00;70254.41;5072622;28;20195;-80
2022/06/22 07:05:23;;;;;;;10.05;4.13;;;;;;;-145.69;100.00;70252.41;5071881;28;20232;-80
2022/06/22 07:07:53;;;;;;;13.40;5.40;;;;;;;-145.69;100.00;70252.41;5072505;28;20197;-79
2022/06/22 07:10:24;;;;;;;12.02;5.30;;;;;;;-145.69;100.00;70286.25;5072722;28;20198;-79
2022/06/22 07:12:57;;;;;;;11.43;5.00;;;;;;;-145.69;100.00;70300.16;5072559;28;20287;-79
2022/06/22 07:15:29;;;;;;;7.35;4.90;;;;;;;-145.69;100.00;70284.25;5072613;28;20232;-79
2022/06/22 07:18:02;;;;;;;10.02;4.35;;;;;;;-145.69;100.00;70262.38;5072344;28;20206;-79
2022/06/22 07:20:36;;;;;;;6.53;4.05;;;;;;;-145.69;100.00;70230.53;5072166;28;20598;-79
2022/06/22 07:23:12;;;;;;;6.50;3.95;;;;;;;-145.69;100.00;70234.50;5072121;28;20231;-79
2022/06/22 07:25:45;;;;;;;10.85;4.20;;;;;;;-145.69;100.00;70240.47;5072359;28;20198;-80
2022/06/22 07:28:20;;;;;;;9.18;4.07;;;;;;;-145.69;100.00;70226.56;5072242;28;20249;-79
2022/06/22 07:30:52;;;;;;;9.68;3.40;;;;;;;-145.69;100.00;70240.47;5072310;28;20284;-80
2022/06/22 07:33:25;;;;;;;7.85;3.80;;;;;;;-145.69;100.00;70212.63;5072260;28;20231;-80
2022/06/22 07:35:57;;;;;;;9.18;3.83;;;;;;;-145.69;100.00;70230.53;5072271;28;20241;-79
2022/06/22 07:38:30;;;;;;;8.32;3.33;;;;;;;-145.69;100.00;70236.50;5072277;28;20563;-79
2022/06/22 07:43:42;;;;;;;14.43;3.92;;;;;;;-145.69;100.00;70198.72;5072144;28;20202;-79
2022/06/22 07:46:17;;;;;;;10.07;3.80;;;;;;;-145.69;100.00;70168.88;5072116;28;20203;-79
2022/06/22 07:48:46;;;;;;;8.50;3.45;;;;;;;-145.69;100.00;70141.03;5075414;28;20657;-79
2022/06/22 07:51:22;;;;;;;12.82;3.47;;;;;;;-145.69;100.00;70133.06;5075522;28;20199;-79
2022/06/22 07:53:54;;;;;;;6.13;3.30;;;;;;;-145.69;100.00;70121.13;5075763;28;20225;-79
2022/06/22 07:56:34;;;;;;;9.32;3.35;;;;;;;-145.69;100.00;70156.94;5075512;28;20672;-79
2022/06/22 07:59:07;;;;;;;12.52;3.60;;;;;;;-145.69;100.00;70166.88;5075675;28;20191;-79
2022/06/22 08:01:38;;;;;;;10.05;3.75;;;;;;;-145.69;100.00;70208.66;5074831;28;20198;-79
2022/06/22 08:04:09;;;;;;;13.25;4.43;;;;;;;-145.69;100.00;70162.91;5075623;28;20233;-78
2022/06/22 08:06:42;;;;;;;10.18;3.60;;;;;;;-145.69;100.00;70156.94;5074455;28;20649;-78
2022/06/22 08:09:15;;;;;;;8.75;3.58;;;;;;;-145.69;97.61;70129.09;5055109;28;20581;-77
2022/06/22 08:11:46;;;;;;;7.82;3.80;;;;;;;-145.69;100.00;70129.09;5054098;28;20203;-80
2022/06/22 08:14:20;;;;;;;9.98;3.90;;;;;;;-145.69;100.00;70196.72;5054757;28;20265;-80
2022/06/22 08:16:54;;;;;;;11.60;4.40;;;;;;;-145.69;100.00;70188.75;5054712;28;20294;-80
2022/06/22 08:19:22;;;;;;;10.82;4.35;;;;;;;-145.69;100.00;70220.59;5055104;28;20480;-80
2022/06/22 08:21:53;;;;;;;11.98;4.35;;;;;;;-145.69;100.00;70200.69;5054863;28;20199;-80
2022/06/22 08:24:21;;;;;;;9.10;4.40;;;;;;;-145.69;100.00;70218.59;5054073;28;20290;-80
2022/06/22 08:26:50;;;;;;;13.13;4.13;;;;;;;-145.69;100.00;70164.88;5054783;28;20214;-80
2022/06/22 08:29:20;;;;;;;10.50;3.70;;;;;;;-145.69;98.42;70109.19;5057416;28;20206;-80
2022/06/22 08:31:52;;;;;;;11.23;3.42;;;;;;;-145.69;88.38;70085.31;5075113;28;20604;-80
2022/06/22 08:34:23;;;;;;;10.88;3.92;;;;;;;-145.69;90.84;70107.19;5074937;28;20195;-80
2022/06/22 08:36:56;;;;;;;9.57;3.70;;;;;;;-145.69;89.00;70097.25;5074424;28;20569;-80
2022/06/22 08:39:27;;;;;;;9.05;3.40;;;;;;;-145.69;91.90;70085.31;5074725;28;20210;-80
2022/06/22 08:42:02;;;;;;;14.27;3.78;;;;;;;-145.69;87.51;70003.75;5074796;28;20687;-80
2022/06/22 08:44:40;;;;;;;10.45;3.22;;;;;;;-145.69;84.93;69918.22;5074834;28;20202;-80
2022/06/22 08:47:23;;;;;;;10.88;3.03;;;;;;;-145.69;83.17;69890.38;5074666;28;20199;-80
2022/06/22 08:50:17;;;;;;;11.00;2.90;;;;;;;-145.69;83.12;69870.50;5074811;28;20203;-80
2022/06/22 08:52:57;;;;;;;6.13;3.00;;;;;;;-145.69;81.73;69902.31;5074575;28;20226;-80
2022/06/22 08:55:36;;;;;;;9.02;2.90;;;;;;;-145.69;79.53;69858.56;5074400;28;20293;-80
2022/06/22 08:58:16;;;;;;;15.23;3.45;;;;;;;-145.69;77.50;69862.53;5072924;28;20194;-80
2022/06/22 09:00:54;;;;;;;14.68;3.25;;;;;;;-145.69;81.87;69904.31;5073980;28;20688;-80
2022/06/22 09:03:38;;;;;;;8.80;3.30;;;;;;;-145.69;79.13;69866.50;5074133;28;20222;-80
2022/06/22 09:06:23;;;;;;;10.68;3.58;;;;;;;-145.69;79.61;69886.41;5073809;28;20696;-80
2022/06/22 09:09:08;;;;;;;7.25;2.95;;;;;;;-145.69;79.20;69874.47;5074186;28;20203;-81
2022/06/22 09:11:41;;;;;;;8.60;3.28;;;;;;;-145.69;78.24;69862.53;5074101;28;20206;-80
2022/06/22 09:14:23;;;;;;;13.52;3.72;;;;;;;-145.69;83.21;69962.00;5073925;28;20226;-81
2022/06/22 09:17:04;;;;;;;7.53;2.95;;;;;;;-145.69;84.70;69958.00;5073888;28;20445;-81
2022/06/22 09:19:49;;;;;;;8.23;2.75;;;;;;;-145.69;87.80;69952.03;5071446;28;20561;-80
2022/06/22 09:22:18;;;;;;;9.45;3.72;;;;;;;-145.69;89.52;69989.84;5073719;28;20237;-82
2022/06/22 09:24:59;;;;;;;8.93;3.13;;;;;;;-145.69;88.75;70017.69;5073578;28;20194;-80
2022/06/22 09:27:41;;;;;;;6.35;2.95;;;;;;;-145.69;88.30;70017.69;5073777;28;20256;-81
2022/06/22 09:30:20;;;;;;;9.90;3.90;;;;;;;-145.69;90.00;70081.34;5073440;28;20653;-80
2022/06/22 09:33:32;;;;;;;11.25;3.42;;;;;;;-145.69;99.21;70188.75;5073407;28;20232;-81
2022/06/22 09:36:33;;;;;;;14.15;4.25;;;;;;;-145.69;100.00;70292.19;5045342;28;20209;-81
2022/06/22 09:39:19;;;;;;;12.15;4.25;;;;;;;-145.69;100.00;70294.19;5056429;28;20534;-81
2022/06/22 09:42:01;;;;;;;14.82;4.80;;;;;;;-145.69;100.00;70310.09;5073663;28;20201;-81
2022/06/22 09:44:57;;;;;;;12.18;4.30;;;;;;;-145.69;100.00;70330.00;5073575;28;20565;-81
2022/06/22 09:47:53;;;;;;;12.05;5.00;;;;;;;-145.69;100.00;70343.94;5073357;28;20206;-80
2022/06/22 09:50:56;;;;;;;13.63;4.72;;;;;;;-145.69;100.00;70349.91;5073055;28;20588;-80
2022/06/22 09:53:54;;;;;;;12.38;3.53;;;;;;;-145.69;100.00;70383.72;5073290;28;20275;-80
2022/06/22 09:56:46;;;;;;;8.68;3.25;;;;;;;-145.69;100.00;70383.72;5073136;28;20209;-80
2022/06/22 09:59:39;;;;;;;11.75;3.10;;;;;;;-145.69;100.00;70381.72;5073308;28;20237;-80
2022/06/22 10:02:23;;;;;;;11.07;3.20;;;;;;;-145.69;100.00;70387.69;5073120;28;20228;-80
2022/06/22 10:05:22;;;;;;;9.32;3.38;;;;;;;-145.69;100.00;70389.69;5073278;28;20202;-80
2022/06/22 10:08:00;;;;;;;12.23;2.92;;;;;;;-145.69;100.00;70383.72;5071717;28;20546;-79
2022/06/22 10:10:40;;;;;;;11.55;3.40;;;;;;;-145.69;100.00;70393.66;5071556;28;20214;-79
2022/06/22 10:13:29;;;;;;;11.98;3.38;;;;;;;-145.69;100.00;70395.66;5072887;28;20226;-79
2022/06/22 10:16:13;;;;;;;9.70;3.33;;;;;;;-145.69;100.00;70403.59;5055912;28;20203;-79
2022/06/22 10:18:52;;;;;;;9.38;3.65;;;;;;;-145.69;100.00;70383.72;5071894;28;20461;-79
2022/06/22 10:21:28;;;;;;;16.77;4.50;;;;;;;-145.69;100.00;70379.72;5072747;28;20229;-80
2022/06/22 10:24:31;;;;;;;10.02;3.90;;;;;;;-145.69;100.00;70377.75;5072630;28;20754;-79
2022/06/22 10:27:22;;;;;;;11.02;3.95;;;;;;;-145.69;100.00;70371.78;5071867;28;20555;-79
2022/06/22 10:30:05;;;;;;;15.02;4.13;;;;;;;-145.69;100.00;70359.84;5073019;28;20253;-80
2022/06/22 10:33:18;;;;;;;11.05;3.58;;;;;;;-145.69;100.00;70351.88;5072892;28;20194;-80
2022/06/22 10:36:01;;;;;;;17.38;3.90;;;;;;;-145.69;100.00;70335.97;4991367;28;20237;-79
2022/06/22 10:38:48;;;;;;;11.45;3.60;;;;;;;-145.69;100.00;70316.06;5062337;28;20285;-79
2022/06/22 10:47:25;;;;;;;17.83;3.22;;;;;;;-145.69;100.00;70288.22;5072789;28;20237;-79
2022/06/22 10:50:22;;;;;;;10.75;2.97;;;;;;;-145.69;100.00;70252.41;5072798;28;20221;-80
2022/06/22 10:53:06;;;;;;;13.50;2.60;;;;;;;-145.69;100.00;70178.81;5072254;28;20245;-79
2022/06/22 10:55:45;;;;;;;9.65;2.60;;;;;;;-145.69;99.62;70152.97;5072858;28;20626;-80
2022/06/22 10:58:25;;;;;;;12.15;2.83;;;;;;;-145.69;99.17;70111.19;5072589;28;20202;-80
2022/06/22 11:01:08;;;;;;;14.00;3.15;;;;;;;-145.69;99.90;70073.38;5072490;28;20673;-80
2022/06/22 11:03:58;;;;;;;15.02;3.22;;;;;;;-145.69;93.59;70031.63;5072467;28;20207;-79
2022/06/22 11:07:04;;;;;;;10.65;2.95;;;;;;;-145.69;93.92;70057.47;5072588;28;20211;-80
2022/06/22 11:09:55;;;;;;;15.43;2.92;;;;;;;-145.69;86.88;70005.75;5072729;28;20199;-80
2022/06/22 11:12:53;;;;;;;10.80;2.30;;;;;;;-145.69;92.39;69981.88;5072309;28;20302;-79
2022/06/22 11:15:39;;;;;;;15.20;2.83;;;;;;;-145.69;91.97;70009.72;5072325;28;20198;-79
2022/06/22 11:18:26;;;;;;;11.18;2.63;;;;;;;-145.69;96.62;70019.69;5072749;28;20195;-79
2022/06/22 11:21:04;;;;;;;10.98;2.53;;;;;;;-145.69;90.17;70051.50;5071938;28;20279;-79
2022/06/22 11:24:00;;;;;;;11.93;2.47;;;;;;;-145.69;98.47;70097.25;5076157;28;20639;-79
2022/06/22 11:32:30;;;;;;;18.75;3.47;;;;;;;-145.69;93.13;70097.25;5056644;28;20222;-78
2022/06/22 11:35:25;;;;;;;15.63;3.00;;;;;;;-145.69;95.57;70095.28;5055841;28;20242;-77
2022/06/22 11:38:09;;;;;;;15.57;2.90;;;;;;;-145.69;96.12;70037.59;5054845;28;20424;-77
2022/06/22 11:40:52;;;;;;;15.55;2.72;;;;;;;-145.69;94.17;69973.94;5055789;28;20203;-79
2022/06/22 11:43:39;;;;;;;19.77;2.65;;;;;;;-145.69;87.95;69940.13;5055733;28;20199;-79
2022/06/22 11:46:16;;;;;;;16.95;2.72;;;;;;;-145.69;84.42;69852.59;5055657;28;20325;-79
2022/06/22 11:48:57;;;;;;;13.23;3.22;;;;;;;-145.69;82.45;69840.66;5055565;28;20202;-79
2022/06/22 11:51:41;;;;;;;16.17;3.40;;;;;;;-145.69;80.27;69820.75;5055699;28;20253;-79
2022/06/22 11:54:29;;;;;;;16.95;3.45;;;;;;;-145.69;85.17;69908.28;5055424;28;20236;-79
2022/06/22 11:57:12;;;;;;;12.38;2.75;;;;;;;-145.69;82.35;69890.38;5055363;28;20620;-78
2022/06/22 11:59:57;;;;;;;13.82;2.72;;;;;;;-145.69;84.17;69846.63;5055322;28;20203;-78
2022/06/22 12:03:05;;;;;;;15.57;3.05;;;;;;;-145.69;81.69;69792.91;5055403;28;20210;-78
2022/06/22 12:05:52;;;;;;;11.45;2.85;;;;;;;-145.69;72.71;69621.88;5012473;28;20239;-78
2022/06/22 12:08:52;;;;;;;16.70;2.80;;;;;;;-145.69;71.27;69607.94;5013324;28;20212;-78